sensor_id;sensor_type;location;lat;lon;timestamp;P1;durP1;ratioP1;P2;durP2;ratioP2
74229;SDS011;62589;12.568;99.958;2023-04-25T00:00:40;14.27;;;10.27;;
74229;SDS011;62589;12.568;99.958;2023-04-25T00:03:06;13.00;;;10.50;;
74229;SDS011;62589;12.568;99.958;2023-04-25T00:05:34;13.98;;;11.18;;
74229;SDS011;62589;12.568;99.958;2023-04-25T00:08:02;13.02;;;11.15;;
74229;SDS011;62589;12.568;99.958;2023-04-25T00:10:30;12.70;;;10.95;;
74229;SDS011;62589;12.568;99.958;2023-04-25T00:12:57;16.58;;;12.75;;
74229;SDS011;62589;12.568;99.958;2023-04-25T00:15:23;16.90;;;12.88;;
74229;SDS011;62589;12.568;99.958;2023-04-25T00:17:50;17.00;;;12.82;;
74229;SDS011;62589;12.568;99.958;2023-04-25T00:20:18;16.88;;;13.05;;
74229;SDS011;62589;12.568;99.958;2023-04-25T00:22:44;17.50;;;12.70;;
74229;SDS011;62589;12.568;99.958;2023-04-25T00:25:11;15.07;;;11.93;;
74229;SDS011;62589;12.568;99.958;2023-04-25T00:27:37;15.45;;;11.80;;
74229;SDS011;62589;12.568;99.958;2023-04-25T00:30:05;17.90;;;11.52;;
74229;SDS011;62589;12.568;99.958;2023-04-25T00:32:32;14.07;;;11.20;;
74229;SDS011;62589;12.568;99.958;2023-04-25T00:34:58;15.38;;;11.05;;
74229;SDS011;62589;12.568;99.958;2023-04-25T00:37:25;14.77;;;11.73;;
74229;SDS011;62589;12.568;99.958;2023-04-25T00:39:52;14.48;;;11.90;;
74229;SDS011;62589;12.568;99.958;2023-04-25T00:42:20;15.82;;;11.65;;
74229;SDS011;62589;12.568;99.958;2023-04-25T00:44:47;16.63;;;11.75;;
74229;SDS011;62589;12.568;99.958;2023-04-25T00:47:14;15.15;;;11.95;;
74229;SDS011;62589;12.568;99.958;2023-04-25T00:49:41;18.20;;;11.05;;
74229;SDS011;62589;12.568;99.958;2023-04-25T00:52:08;17.88;;;11.40;;
74229;SDS011;62589;12.568;99.958;2023-04-25T00:54:34;16.17;;;11.15;;
74229;SDS011;62589;12.568;99.958;2023-04-25T00:57:01;13.52;;;10.35;;
74229;SDS011;62589;12.568;99.958;2023-04-25T00:59:28;17.65;;;10.93;;
74229;SDS011;62589;12.568;99.958;2023-04-25T01:01:56;14.50;;;11.15;;
74229;SDS011;62589;12.568;99.958;2023-04-25T01:04:22;12.13;;;10.15;;
74229;SDS011;62589;12.568;99.958;2023-04-25T01:06:49;14.75;;;9.85;;
74229;SDS011;62589;12.568;99.958;2023-04-25T01:09:16;12.65;;;9.77;;
74229;SDS011;62589;12.568;99.958;2023-04-25T01:11:42;12.63;;;9.65;;
74229;SDS011;62589;12.568;99.958;2023-04-25T01:14:08;11.93;;;9.20;;
74229;SDS011;62589;12.568;99.958;2023-04-25T01:16:35;11.13;;;9.40;;
74229;SDS011;62589;12.568;99.958;2023-04-25T01:19:04;11.73;;;8.85;;
74229;SDS011;62589;12.568;99.958;2023-04-25T01:21:36;12.43;;;9.27;;
74229;SDS011;62589;12.568;99.958;2023-04-25T01:24:03;12.27;;;9.40;;
74229;SDS011;62589;12.568;99.958;2023-04-25T01:26:30;11.88;;;9.38;;
74229;SDS011;62589;12.568;99.958;2023-04-25T01:28:57;10.40;;;8.40;;
74229;SDS011;62589;12.568;99.958;2023-04-25T01:31:25;12.65;;;8.52;;
74229;SDS011;62589;12.568;99.958;2023-04-25T01:48:20;10.52;;;8.77;;
74229;SDS011;62589;12.568;99.958;2023-04-25T01:50:47;9.68;;;8.63;;
74229;SDS011;62589;12.568;99.958;2023-04-25T01:53:14;11.82;;;8.45;;
74229;SDS011;62589;12.568;99.958;2023-04-25T01:55:40;11.77;;;9.10;;
74229;SDS011;62589;12.568;99.958;2023-04-25T01:58:07;12.02;;;8.30;;
74229;SDS011;62589;12.568;99.958;2023-04-25T02:00:37;11.88;;;9.05;;
74229;SDS011;62589;12.568;99.958;2023-04-25T02:03:04;9.63;;;8.63;;
74229;SDS011;62589;12.568;99.958;2023-04-25T02:05:35;13.45;;;9.13;;
74229;SDS011;62589;12.568;99.958;2023-04-25T02:08:03;10.77;;;8.57;;
74229;SDS011;62589;12.568;99.958;2023-04-25T02:10:31;11.68;;;8.45;;
74229;SDS011;62589;12.568;99.958;2023-04-25T02:12:59;12.82;;;8.65;;
74229;SDS011;62589;12.568;99.958;2023-04-25T02:15:25;11.48;;;9.18;;
74229;SDS011;62589;12.568;99.958;2023-04-25T02:17:52;10.73;;;8.75;;
74229;SDS011;62589;12.568;99.958;2023-04-25T02:20:20;11.15;;;8.45;;
74229;SDS011;62589;12.568;99.958;2023-04-25T02:22:47;11.25;;;8.30;;
74229;SDS011;62589;12.568;99.958;2023-04-25T02:25:13;11.68;;;8.07;;
74229;SDS011;62589;12.568;99.958;2023-04-25T02:27:41;11.45;;;8.93;;
74229;SDS011;62589;12.568;99.958;2023-04-25T02:43:11;10.95;;;8.82;;
74229;SDS011;62589;12.568;99.958;2023-04-25T02:45:38;10.60;;;8.90;;
74229;SDS011;62589;12.568;99.958;2023-04-25T02:48:04;13.25;;;8.48;;
74229;SDS011;62589;12.568;99.958;2023-04-25T02:50:31;10.85;;;9.35;;
74229;SDS011;62589;12.568;99.958;2023-04-25T02:52:57;14.73;;;10.63;;
74229;SDS011;62589;12.568;99.958;2023-04-25T02:55:24;11.18;;;9.05;;
74229;SDS011;62589;12.568;99.958;2023-04-25T02:57:51;12.45;;;10.05;;
74229;SDS011;62589;12.568;99.958;2023-04-25T03:00:17;14.10;;;9.43;;
74229;SDS011;62589;12.568;99.958;2023-04-25T03:02:44;10.57;;;8.50;;
74229;SDS011;62589;12.568;99.958;2023-04-25T03:05:10;13.68;;;9.32;;
74229;SDS011;62589;12.568;99.958;2023-04-25T03:07:37;13.57;;;8.65;;
74229;SDS011;62589;12.568;99.958;2023-04-25T03:10:05;9.80;;;8.80;;
74229;SDS011;62589;12.568;99.958;2023-04-25T03:12:33;12.82;;;8.93;;
74229;SDS011;62589;12.568;99.958;2023-04-25T03:14:59;11.32;;;9.05;;
74229;SDS011;62589;12.568;99.958;2023-04-25T03:17:26;12.27;;;9.63;;
74229;SDS011;62589;12.568;99.958;2023-04-25T03:19:52;10.68;;;8.90;;
74229;SDS011;62589;12.568;99.958;2023-04-25T03:22:18;10.77;;;9.25;;
74229;SDS011;62589;12.568;99.958;2023-04-25T03:24:45;15.52;;;9.10;;
74229;SDS011;62589;12.568;99.958;2023-04-25T03:27:12;10.70;;;9.13;;
74229;SDS011;62589;12.568;99.958;2023-04-25T03:29:38;10.30;;;8.55;;
74229;SDS011;62589;12.568;99.958;2023-04-25T03:32:05;12.02;;;8.43;;
74229;SDS011;62589;12.568;99.958;2023-04-25T03:34:32;11.48;;;8.98;;
74229;SDS011;62589;12.568;99.958;2023-04-25T03:36:58;12.20;;;9.05;;
74229;SDS011;62589;12.568;99.958;2023-04-25T03:39:25;13.50;;;9.63;;
74229;SDS011;62589;12.568;99.958;2023-04-25T03:41:52;17.73;;;10.55;;
74229;SDS011;62589;12.568;99.958;2023-04-25T03:44:18;12.60;;;8.93;;
74229;SDS011;62589;12.568;99.958;2023-04-25T03:46:45;10.07;;;7.93;;
74229;SDS011;62589;12.568;99.958;2023-04-25T03:49:11;11.05;;;8.70;;
74229;SDS011;62589;12.568;99.958;2023-04-25T03:51:37;13.57;;;9.45;;
74229;SDS011;62589;12.568;99.958;2023-04-25T03:54:04;10.82;;;8.80;;
74229;SDS011;62589;12.568;99.958;2023-04-25T03:56:30;8.95;;;7.85;;
74229;SDS011;62589;12.568;99.958;2023-04-25T03:58:57;10.15;;;8.30;;
74229;SDS011;62589;12.568;99.958;2023-04-25T04:01:23;9.88;;;8.45;;
74229;SDS011;62589;12.568;99.958;2023-04-25T04:03:50;9.38;;;8.10;;
74229;SDS011;62589;12.568;99.958;2023-04-25T04:06:16;10.82;;;8.13;;
74229;SDS011;62589;12.568;99.958;2023-04-25T04:08:44;11.88;;;8.80;;
74229;SDS011;62589;12.568;99.958;2023-04-25T04:11:10;9.68;;;8.32;;
74229;SDS011;62589;12.568;99.958;2023-04-25T04:13:37;8.63;;;7.57;;
74229;SDS011;62589;12.568;99.958;2023-04-25T04:16:03;10.30;;;7.15;;
74229;SDS011;62589;12.568;99.958;2023-04-25T04:18:30;11.00;;;8.57;;
74229;SDS011;62589;12.568;99.958;2023-04-25T04:20:58;10.57;;;8.35;;
74229;SDS011;62589;12.568;99.958;2023-04-25T04:23:25;8.82;;;8.02;;
74229;SDS011;62589;12.568;99.958;2023-04-25T04:25:52;8.18;;;7.38;;
74229;SDS011;62589;12.568;99.958;2023-04-25T04:28:20;8.02;;;6.82;;
74229;SDS011;62589;12.568;99.958;2023-04-25T04:30:47;7.57;;;6.78;;
74229;SDS011;62589;12.568;99.958;2023-04-25T04:33:16;12.75;;;8.68;;
74229;SDS011;62589;12.568;99.958;2023-04-25T04:35:45;12.02;;;9.32;;
74229;SDS011;62589;12.568;99.958;2023-04-25T04:38:12;9.80;;;7.88;;
74229;SDS011;62589;12.568;99.958;2023-04-25T04:40:41;9.27;;;6.95;;
74229;SDS011;62589;12.568;99.958;2023-04-25T04:43:11;11.48;;;6.78;;
74229;SDS011;62589;12.568;99.958;2023-04-25T04:45:38;8.70;;;6.80;;
74229;SDS011;62589;12.568;99.958;2023-04-25T04:48:05;9.07;;;7.68;;
74229;SDS011;62589;12.568;99.958;2023-04-25T04:50:32;8.88;;;7.97;;
74229;SDS011;62589;12.568;99.958;2023-04-25T04:52:59;10.35;;;8.30;;
74229;SDS011;62589;12.568;99.958;2023-04-25T04:55:25;9.20;;;7.63;;
74229;SDS011;62589;12.568;99.958;2023-04-25T04:57:52;9.80;;;7.50;;
74229;SDS011;62589;12.568;99.958;2023-04-25T05:00:19;13.18;;;8.07;;
74229;SDS011;62589;12.568;99.958;2023-04-25T05:02:46;9.38;;;8.35;;
74229;SDS011;62589;12.568;99.958;2023-04-25T05:05:12;10.52;;;8.90;;
74229;SDS011;62589;12.568;99.958;2023-04-25T05:07:38;9.02;;;7.90;;
74229;SDS011;62589;12.568;99.958;2023-04-25T05:10:06;10.27;;;7.47;;
74229;SDS011;62589;12.568;99.958;2023-04-25T05:12:33;10.43;;;7.72;;
74229;SDS011;62589;12.568;99.958;2023-04-25T05:14:59;11.93;;;7.75;;
74229;SDS011;62589;12.568;99.958;2023-04-25T05:17:26;8.82;;;8.02;;
74229;SDS011;62589;12.568;99.958;2023-04-25T05:19:52;11.05;;;8.13;;
74229;SDS011;62589;12.568;99.958;2023-04-25T05:22:18;10.05;;;8.52;;
74229;SDS011;62589;12.568;99.958;2023-04-25T05:24:45;9.43;;;8.43;;
74229;SDS011;62589;12.568;99.958;2023-04-25T05:27:11;11.75;;;8.52;;
74229;SDS011;62589;12.568;99.958;2023-04-25T05:29:38;10.27;;;8.05;;
74229;SDS011;62589;12.568;99.958;2023-04-25T05:32:05;8.88;;;7.95;;
74229;SDS011;62589;12.568;99.958;2023-04-25T05:34:32;9.45;;;7.57;;
74229;SDS011;62589;12.568;99.958;2023-04-25T05:36:58;8.65;;;7.47;;
74229;SDS011;62589;12.568;99.958;2023-04-25T05:39:25;9.65;;;8.23;;
74229;SDS011;62589;12.568;99.958;2023-04-25T05:41:51;8.77;;;7.88;;
74229;SDS011;62589;12.568;99.958;2023-04-25T05:44:18;9.32;;;8.25;;
74229;SDS011;62589;12.568;99.958;2023-04-25T05:46:44;9.25;;;8.32;;
74229;SDS011;62589;12.568;99.958;2023-04-25T05:49:11;9.32;;;8.20;;
74229;SDS011;62589;12.568;99.958;2023-04-25T05:51:37;9.73;;;8.73;;
74229;SDS011;62589;12.568;99.958;2023-04-25T05:54:04;9.30;;;8.25;;
74229;SDS011;62589;12.568;99.958;2023-04-25T05:56:30;9.48;;;8.45;;
74229;SDS011;62589;12.568;99.958;2023-04-25T05:58:56;9.93;;;8.90;;
74229;SDS011;62589;12.568;99.958;2023-04-25T06:01:23;8.73;;;7.75;;
74229;SDS011;62589;12.568;99.958;2023-04-25T06:03:49;12.52;;;9.30;;
74229;SDS011;62589;12.568;99.958;2023-04-25T06:06:18;10.85;;;9.75;;
74229;SDS011;62589;12.568;99.958;2023-04-25T06:08:44;14.02;;;9.70;;
74229;SDS011;62589;12.568;99.958;2023-04-25T06:11:11;12.10;;;9.52;;
74229;SDS011;62589;12.568;99.958;2023-04-25T06:13:38;10.70;;;9.52;;
74229;SDS011;62589;12.568;99.958;2023-04-25T06:16:04;12.98;;;9.65;;
74229;SDS011;62589;12.568;99.958;2023-04-25T06:18:31;11.30;;;9.60;;
74229;SDS011;62589;12.568;99.958;2023-04-25T06:20:57;11.00;;;9.60;;
74229;SDS011;62589;12.568;99.958;2023-04-25T06:23:24;10.93;;;9.80;;
74229;SDS011;62589;12.568;99.958;2023-04-25T06:25:50;10.68;;;9.50;;
74229;SDS011;62589;12.568;99.958;2023-04-25T06:28:17;10.77;;;9.48;;
74229;SDS011;62589;12.568;99.958;2023-04-25T06:30:43;12.02;;;8.93;;
74229;SDS011;62589;12.568;99.958;2023-04-25T06:33:10;13.00;;;9.00;;
74229;SDS011;62589;12.568;99.958;2023-04-25T06:35:36;8.88;;;7.97;;
74229;SDS011;62589;12.568;99.958;2023-04-25T06:38:03;11.05;;;8.40;;
74229;SDS011;62589;12.568;99.958;2023-04-25T06:40:29;12.73;;;8.27;;
74229;SDS011;62589;12.568;99.958;2023-04-25T06:42:56;10.63;;;8.10;;
74229;SDS011;62589;12.568;99.958;2023-04-25T06:45:22;10.40;;;8.60;;
74229;SDS011;62589;12.568;99.958;2023-04-25T06:47:48;9.63;;;8.68;;
74229;SDS011;62589;12.568;99.958;2023-04-25T06:50:15;9.77;;;8.63;;
74229;SDS011;62589;12.568;99.958;2023-04-25T06:52:41;9.98;;;7.72;;
74229;SDS011;62589;12.568;99.958;2023-04-25T06:55:08;11.68;;;8.68;;
74229;SDS011;62589;12.568;99.958;2023-04-25T06:57:35;12.63;;;8.95;;
74229;SDS011;62589;12.568;99.958;2023-04-25T07:00:01;10.40;;;9.20;;
74229;SDS011;62589;12.568;99.958;2023-04-25T07:02:30;9.40;;;8.50;;
74229;SDS011;62589;12.568;99.958;2023-04-25T07:04:57;15.43;;;9.30;;
74229;SDS011;62589;12.568;99.958;2023-04-25T07:07:25;10.88;;;9.02;;
74229;SDS011;62589;12.568;99.958;2023-04-25T07:09:52;9.73;;;8.73;;
74229;SDS011;62589;12.568;99.958;2023-04-25T07:12:18;10.82;;;9.00;;
74229;SDS011;62589;12.568;99.958;2023-04-25T07:14:45;10.00;;;9.02;;
74229;SDS011;62589;12.568;99.958;2023-04-25T07:17:11;11.00;;;9.55;;
74229;SDS011;62589;12.568;99.958;2023-04-25T07:19:38;12.73;;;9.57;;
74229;SDS011;62589;12.568;99.958;2023-04-25T07:22:05;15.70;;;9.55;;
74229;SDS011;62589;12.568;99.958;2023-04-25T07:24:32;12.52;;;9.68;;
74229;SDS011;62589;12.568;99.958;2023-04-25T07:26:58;11.07;;;9.55;;
74229;SDS011;62589;12.568;99.958;2023-04-25T07:29:26;11.48;;;9.48;;
74229;SDS011;62589;12.568;99.958;2023-04-25T07:31:53;12.25;;;10.02;;
74229;SDS011;62589;12.568;99.958;2023-04-25T07:34:19;10.93;;;9.35;;
74229;SDS011;62589;12.568;99.958;2023-04-25T07:36:46;13.02;;;9.88;;
74229;SDS011;62589;12.568;99.958;2023-04-25T07:39:12;11.88;;;9.68;;
74229;SDS011;62589;12.568;99.958;2023-04-25T07:41:39;13.63;;;9.75;;
74229;SDS011;62589;12.568;99.958;2023-04-25T07:44:05;11.30;;;10.10;;
74229;SDS011;62589;12.568;99.958;2023-04-25T07:46:32;11.43;;;10.25;;
74229;SDS011;62589;12.568;99.958;2023-04-25T07:48:58;12.20;;;10.10;;
74229;SDS011;62589;12.568;99.958;2023-04-25T07:51:24;11.05;;;9.95;;
74229;SDS011;62589;12.568;99.958;2023-04-25T07:53:51;12.85;;;9.90;;
74229;SDS011;62589;12.568;99.958;2023-04-25T07:56:17;11.63;;;10.43;;
74229;SDS011;62589;12.568;99.958;2023-04-25T07:58:44;12.82;;;10.00;;
74229;SDS011;62589;12.568;99.958;2023-04-25T08:01:10;11.05;;;9.70;;
74229;SDS011;62589;12.568;99.958;2023-04-25T08:03:37;11.07;;;9.70;;
74229;SDS011;62589;12.568;99.958;2023-04-25T08:06:03;15.07;;;10.55;;
74229;SDS011;62589;12.568;99.958;2023-04-25T08:08:30;13.20;;;10.43;;
74229;SDS011;62589;12.568;99.958;2023-04-25T08:10:56;13.82;;;10.55;;
74229;SDS011;62589;12.568;99.958;2023-04-25T08:13:23;14.77;;;11.63;;
74229;SDS011;62589;12.568;99.958;2023-04-25T08:15:49;13.10;;;11.20;;
74229;SDS011;62589;12.568;99.958;2023-04-25T08:18:16;15.63;;;11.70;;
74229;SDS011;62589;12.568;99.958;2023-04-25T08:20:42;13.60;;;10.52;;
74229;SDS011;62589;12.568;99.958;2023-04-25T08:23:09;12.90;;;11.05;;
74229;SDS011;62589;12.568;99.958;2023-04-25T08:25:36;13.55;;;11.57;;
74229;SDS011;62589;12.568;99.958;2023-04-25T08:28:02;13.02;;;10.68;;
74229;SDS011;62589;12.568;99.958;2023-04-25T08:30:29;13.77;;;10.85;;
74229;SDS011;62589;12.568;99.958;2023-04-25T08:32:56;13.77;;;11.30;;
74229;SDS011;62589;12.568;99.958;2023-04-25T08:35:23;15.63;;;10.77;;
74229;SDS011;62589;12.568;99.958;2023-04-25T08:37:49;12.48;;;10.80;;
74229;SDS011;62589;12.568;99.958;2023-04-25T08:40:16;16.25;;;11.18;;
74229;SDS011;62589;12.568;99.958;2023-04-25T08:42:43;14.68;;;10.32;;
74229;SDS011;62589;12.568;99.958;2023-04-25T08:45:10;14.52;;;11.20;;
74229;SDS011;62589;12.568;99.958;2023-04-25T08:47:37;12.80;;;10.57;;
74229;SDS011;62589;12.568;99.958;2023-04-25T08:50:05;13.65;;;11.68;;
74229;SDS011;62589;12.568;99.958;2023-04-25T08:52:35;13.55;;;11.90;;
74229;SDS011;62589;12.568;99.958;2023-04-25T08:55:06;12.95;;;10.75;;
74229;SDS011;62589;12.568;99.958;2023-04-25T08:57:38;12.35;;;10.98;;
74229;SDS011;62589;12.568;99.958;2023-04-25T09:00:08;13.32;;;11.50;;
74229;SDS011;62589;12.568;99.958;2023-04-25T09:02:37;17.70;;;11.98;;
74229;SDS011;62589;12.568;99.958;2023-04-25T09:05:04;13.18;;;11.40;;
74229;SDS011;62589;12.568;99.958;2023-04-25T09:07:32;13.20;;;11.80;;
74229;SDS011;62589;12.568;99.958;2023-04-25T09:09:59;15.15;;;11.43;;
74229;SDS011;62589;12.568;99.958;2023-04-25T09:12:27;13.82;;;11.63;;
74229;SDS011;62589;12.568;99.958;2023-04-25T09:17:35;14.30;;;12.57;;
74229;SDS011;62589;12.568;99.958;2023-04-25T09:20:06;15.90;;;12.00;;
74229;SDS011;62589;12.568;99.958;2023-04-25T09:22:34;18.60;;;13.07;;
74229;SDS011;62589;12.568;99.958;2023-04-25T09:25:04;15.63;;;12.85;;
74229;SDS011;62589;12.568;99.958;2023-04-25T09:27:34;15.88;;;13.00;;
74229;SDS011;62589;12.568;99.958;2023-04-25T09:30:02;16.50;;;13.02;;
74229;SDS011;62589;12.568;99.958;2023-04-25T09:32:29;14.48;;;12.07;;
74229;SDS011;62589;12.568;99.958;2023-04-25T09:34:56;16.63;;;13.38;;
74229;SDS011;62589;12.568;99.958;2023-04-25T09:37:24;16.85;;;13.88;;
74229;SDS011;62589;12.568;99.958;2023-04-25T09:51:13;41.10;;;29.00;;
74229;SDS011;62589;12.568;99.958;2023-04-25T09:53:43;33.45;;;22.95;;
74229;SDS011;62589;12.568;99.958;2023-04-25T09:56:15;60.88;;;46.10;;
74229;SDS011;62589;12.568;99.958;2023-04-25T09:58:42;36.20;;;27.35;;
74229;SDS011;62589;12.568;99.958;2023-04-25T10:01:09;23.45;;;19.63;;
74229;SDS011;62589;12.568;99.958;2023-04-25T10:03:38;35.40;;;26.05;;
74229;SDS011;62589;12.568;99.958;2023-04-25T10:06:09;22.02;;;15.05;;
74229;SDS011;62589;12.568;99.958;2023-04-25T10:08:39;17.15;;;12.25;;
74229;SDS011;62589;12.568;99.958;2023-04-25T10:11:07;16.00;;;11.50;;
74229;SDS011;62589;12.568;99.958;2023-04-25T10:13:34;14.27;;;11.00;;
74229;SDS011;62589;12.568;99.958;2023-04-25T10:16:03;14.85;;;12.13;;
74229;SDS011;62589;12.568;99.958;2023-04-25T10:18:30;15.98;;;13.13;;
74229;SDS011;62589;12.568;99.958;2023-04-25T10:20:59;19.23;;;13.90;;
74229;SDS011;62589;12.568;99.958;2023-04-25T10:23:27;19.30;;;13.85;;
74229;SDS011;62589;12.568;99.958;2023-04-25T10:25:56;44.28;;;29.60;;
74229;SDS011;62589;12.568;99.958;2023-04-25T10:28:23;24.20;;;18.63;;
74229;SDS011;62589;12.568;99.958;2023-04-25T10:33:32;45.38;;;29.00;;
74229;SDS011;62589;12.568;99.958;2023-04-25T10:38:47;40.63;;;25.15;;
74229;SDS011;62589;12.568;99.958;2023-04-25T10:41:17;31.88;;;21.23;;
74229;SDS011;62589;12.568;99.958;2023-04-25T10:43:46;36.92;;;22.52;;
74229;SDS011;62589;12.568;99.958;2023-04-25T10:46:23;31.40;;;20.17;;
74229;SDS011;62589;12.568;99.958;2023-04-25T10:48:52;26.13;;;17.30;;
74229;SDS011;62589;12.568;99.958;2023-04-25T10:51:21;18.38;;;13.20;;
74229;SDS011;62589;12.568;99.958;2023-04-25T10:53:59;13.85;;;10.68;;
74229;SDS011;62589;12.568;99.958;2023-04-25T10:56:40;14.15;;;9.85;;
74229;SDS011;62589;12.568;99.958;2023-04-25T10:59:11;15.35;;;9.88;;
74229;SDS011;62589;12.568;99.958;2023-04-25T11:01:46;27.30;;;19.13;;
74229;SDS011;62589;12.568;99.958;2023-04-25T11:12:30;10.82;;;9.07;;
74229;SDS011;62589;12.568;99.958;2023-04-25T11:15:04;12.50;;;9.85;;
74229;SDS011;62589;12.568;99.958;2023-04-25T11:17:32;11.65;;;9.90;;
74229;SDS011;62589;12.568;99.958;2023-04-25T11:20:00;12.75;;;9.80;;
74229;SDS011;62589;12.568;99.958;2023-04-25T11:22:27;12.00;;;9.52;;
74229;SDS011;62589;12.568;99.958;2023-04-25T11:24:55;12.48;;;9.38;;
74229;SDS011;62589;12.568;99.958;2023-04-25T11:27:21;12.60;;;10.52;;
74229;SDS011;62589;12.568;99.958;2023-04-25T11:29:50;15.40;;;10.05;;
74229;SDS011;62589;12.568;99.958;2023-04-25T11:32:17;13.02;;;10.23;;
74229;SDS011;62589;12.568;99.958;2023-04-25T11:34:44;11.77;;;9.82;;
74229;SDS011;62589;12.568;99.958;2023-04-25T11:37:12;12.40;;;10.35;;
74229;SDS011;62589;12.568;99.958;2023-04-25T11:39:43;13.82;;;10.38;;
74229;SDS011;62589;12.568;99.958;2023-04-25T11:42:11;13.52;;;10.30;;
74229;SDS011;62589;12.568;99.958;2023-04-25T11:44:38;13.82;;;11.25;;
74229;SDS011;62589;12.568;99.958;2023-04-25T11:47:06;16.90;;;10.77;;
74229;SDS011;62589;12.568;99.958;2023-04-25T11:49:32;12.63;;;10.73;;
74229;SDS011;62589;12.568;99.958;2023-04-25T11:52:00;13.15;;;10.95;;
74229;SDS011;62589;12.568;99.958;2023-04-25T11:54:27;22.17;;;11.40;;
74229;SDS011;62589;12.568;99.958;2023-04-25T11:56:53;15.30;;;12.13;;
74229;SDS011;62589;12.568;99.958;2023-04-25T11:59:22;16.77;;;11.70;;
74229;SDS011;62589;12.568;99.958;2023-04-25T12:01:50;13.93;;;10.50;;
74229;SDS011;62589;12.568;99.958;2023-04-25T12:04:21;15.25;;;9.75;;
74229;SDS011;62589;12.568;99.958;2023-04-25T12:06:50;13.65;;;9.77;;
74229;SDS011;62589;12.568;99.958;2023-04-25T12:09:19;11.10;;;9.70;;
74229;SDS011;62589;12.568;99.958;2023-04-25T12:11:53;9.77;;;8.77;;
74229;SDS011;62589;12.568;99.958;2023-04-25T12:14:22;11.93;;;8.77;;
74229;SDS011;62589;12.568;99.958;2023-04-25T12:16:50;11.05;;;8.80;;
74229;SDS011;62589;12.568;99.958;2023-04-25T12:19:17;11.57;;;9.13;;
74229;SDS011;62589;12.568;99.958;2023-04-25T12:21:45;12.88;;;8.82;;
74229;SDS011;62589;12.568;99.958;2023-04-25T12:24:14;12.18;;;8.80;;
74229;SDS011;62589;12.568;99.958;2023-04-25T12:26:52;13.75;;;9.05;;
74229;SDS011;62589;12.568;99.958;2023-04-25T12:29:33;12.93;;;8.43;;
74229;SDS011;62589;12.568;99.958;2023-04-25T12:32:00;13.68;;;9.23;;
74229;SDS011;62589;12.568;99.958;2023-04-25T12:34:27;12.80;;;8.55;;
74229;SDS011;62589;12.568;99.958;2023-04-25T12:36:54;16.33;;;9.68;;
74229;SDS011;62589;12.568;99.958;2023-04-25T12:39:22;13.35;;;10.23;;
74229;SDS011;62589;12.568;99.958;2023-04-25T12:41:50;13.85;;;10.00;;
74229;SDS011;62589;12.568;99.958;2023-04-25T12:44:20;15.05;;;9.32;;
74229;SDS011;62589;12.568;99.958;2023-04-25T12:46:47;12.77;;;9.00;;
74229;SDS011;62589;12.568;99.958;2023-04-25T12:49:14;13.07;;;9.57;;
74229;SDS011;62589;12.568;99.958;2023-04-25T12:51:40;13.45;;;9.18;;
74229;SDS011;62589;12.568;99.958;2023-04-25T12:54:07;11.90;;;8.65;;
74229;SDS011;62589;12.568;99.958;2023-04-25T12:56:34;13.88;;;9.20;;
74229;SDS011;62589;12.568;99.958;2023-04-25T12:59:01;10.85;;;8.57;;
74229;SDS011;62589;12.568;99.958;2023-04-25T13:01:31;14.93;;;10.27;;
74229;SDS011;62589;12.568;99.958;2023-04-25T13:03:58;18.45;;;11.15;;
74229;SDS011;62589;12.568;99.958;2023-04-25T13:06:24;18.55;;;11.60;;
74229;SDS011;62589;12.568;99.958;2023-04-25T13:08:51;15.40;;;10.68;;
74229;SDS011;62589;12.568;99.958;2023-04-25T13:11:17;16.48;;;10.50;;
74229;SDS011;62589;12.568;99.958;2023-04-25T13:13:44;15.68;;;10.50;;
74229;SDS011;62589;12.568;99.958;2023-04-25T13:16:10;14.82;;;10.13;;
74229;SDS011;62589;12.568;99.958;2023-04-25T13:18:39;18.13;;;11.13;;
74229;SDS011;62589;12.568;99.958;2023-04-25T13:21:06;18.38;;;11.07;;
74229;SDS011;62589;12.568;99.958;2023-04-25T13:23:34;15.52;;;9.90;;
74229;SDS011;62589;12.568;99.958;2023-04-25T13:26:01;14.27;;;9.30;;
74229;SDS011;62589;12.568;99.958;2023-04-25T13:28:27;14.40;;;9.65;;
74229;SDS011;62589;12.568;99.958;2023-04-25T13:30:54;14.90;;;9.68;;
74229;SDS011;62589;12.568;99.958;2023-04-25T13:33:20;19.02;;;9.98;;
74229;SDS011;62589;12.568;99.958;2023-04-25T13:35:48;16.27;;;11.07;;
74229;SDS011;62589;12.568;99.958;2023-04-25T13:38:25;15.80;;;10.35;;
74229;SDS011;62589;12.568;99.958;2023-04-25T13:40:51;16.70;;;10.93;;
74229;SDS011;62589;12.568;99.958;2023-04-25T13:43:18;23.27;;;13.80;;
74229;SDS011;62589;12.568;99.958;2023-04-25T13:45:47;24.73;;;14.32;;
74229;SDS011;62589;12.568;99.958;2023-04-25T13:48:15;25.33;;;13.90;;
74229;SDS011;62589;12.568;99.958;2023-04-25T13:50:42;26.95;;;13.55;;
74229;SDS011;62589;12.568;99.958;2023-04-25T13:53:08;21.15;;;13.35;;
74229;SDS011;62589;12.568;99.958;2023-04-25T13:55:35;19.95;;;11.93;;
74229;SDS011;62589;12.568;99.958;2023-04-25T13:58:02;19.27;;;11.30;;
74229;SDS011;62589;12.568;99.958;2023-04-25T14:00:36;14.13;;;9.27;;
74229;SDS011;62589;12.568;99.958;2023-04-25T14:03:04;15.70;;;10.10;;
74229;SDS011;62589;12.568;99.958;2023-04-25T14:05:32;16.05;;;9.35;;
74229;SDS011;62589;12.568;99.958;2023-04-25T14:08:04;11.15;;;8.93;;
74229;SDS011;62589;12.568;99.958;2023-04-25T14:10:32;11.35;;;8.52;;
74229;SDS011;62589;12.568;99.958;2023-04-25T14:13:00;10.20;;;8.43;;
74229;SDS011;62589;12.568;99.958;2023-04-25T14:15:28;12.68;;;8.65;;
74229;SDS011;62589;12.568;99.958;2023-04-25T14:17:56;9.90;;;7.70;;
74229;SDS011;62589;12.568;99.958;2023-04-25T14:20:22;10.52;;;7.95;;
74229;SDS011;62589;12.568;99.958;2023-04-25T14:22:49;8.82;;;7.65;;
74229;SDS011;62589;12.568;99.958;2023-04-25T14:25:15;8.38;;;7.10;;
74229;SDS011;62589;12.568;99.958;2023-04-25T14:27:42;11.13;;;8.25;;
74229;SDS011;62589;12.568;99.958;2023-04-25T14:30:10;8.15;;;7.03;;
74229;SDS011;62589;12.568;99.958;2023-04-25T14:32:37;7.93;;;7.13;;
74229;SDS011;62589;12.568;99.958;2023-04-25T14:35:03;8.02;;;6.35;;
74229;SDS011;62589;12.568;99.958;2023-04-25T14:37:31;7.22;;;6.45;;
74229;SDS011;62589;12.568;99.958;2023-04-25T14:39:57;8.70;;;6.88;;
74229;SDS011;62589;12.568;99.958;2023-04-25T14:42:23;8.02;;;7.18;;
74229;SDS011;62589;12.568;99.958;2023-04-25T14:44:50;7.78;;;6.25;;
74229;SDS011;62589;12.568;99.958;2023-04-25T14:47:16;8.25;;;6.47;;
74229;SDS011;62589;12.568;99.958;2023-04-25T14:49:43;8.23;;;6.85;;
74229;SDS011;62589;12.568;99.958;2023-04-25T14:52:16;9.35;;;6.70;;
74229;SDS011;62589;12.568;99.958;2023-04-25T14:54:42;10.20;;;6.80;;
74229;SDS011;62589;12.568;99.958;2023-04-25T14:57:09;8.68;;;6.88;;
74229;SDS011;62589;12.568;99.958;2023-04-25T14:59:35;7.43;;;6.65;;
74229;SDS011;62589;12.568;99.958;2023-04-25T15:02:02;9.80;;;6.93;;
74229;SDS011;62589;12.568;99.958;2023-04-25T15:04:29;7.30;;;6.38;;
74229;SDS011;62589;12.568;99.958;2023-04-25T15:06:55;7.70;;;6.63;;
74229;SDS011;62589;12.568;99.958;2023-04-25T15:09:22;10.13;;;7.55;;
74229;SDS011;62589;12.568;99.958;2023-04-25T15:11:49;9.07;;;7.30;;
74229;SDS011;62589;12.568;99.958;2023-04-25T15:14:17;13.20;;;8.45;;